Lackey, Mississippi
Current Conditions -  °F | °C
As of 9:35 AM on Wednesday 26 Nov 2014 (Local Time) from KM40 Reporting Station
Clear Clear  
Wind Chill: 41°   Ceiling: Unl
Heat Index: 45°   Visibility: 9mi
Dew Point: 30°   Wind: 6mph
Humidity: 57%   Direction: 180°S
Pressure: 30.22"   Gusts: NA
Location:  33.8251°N, 88.6185°W
Report Text: KM40 261535Z AUTO 18005KT 9SM CLR 07/M01 A3022 RMK AO2
Loading
Personal Weather Stations






























Interactive Weather Map New forecast layout! Learn more

10-Day Weather Forecast

Advertisements
Track Severe Weather on mobile